Time;durP1;ratioP1;P1;durP2;ratioP2;P2;SDS_P1;SDS_P2;PMS_P1;PMS_P2;Temp;Humidity;BMP_temperature;BMP_pressure;BME280_temperature;BME280_humidity;BME280_pressure;Samples;Min_cycle;Max_cycle;Signal;HPM_P1;HPM_P2
2020/12/24 00:01:37;;;;;;;20.48;3.45;;;;;;;;;;4915833;29;20094;-76
2020/12/24 00:04:02;;;;;;;16.05;2.55;;;;;;;;;;4933667;29;20365;-76
2020/12/24 00:06:27;;;;;;;9.57;1.70;;;;;;;;;;4933018;29;20015;-76
2020/12/24 00:08:52;;;;;;;22.23;2.80;;;;;;;;;;4934470;29;20043;-76
2020/12/24 00:11:17;;;;;;;19.42;2.42;;;;;;;;;;4919720;29;20441;-76
2020/12/24 00:13:43;;;;;;;16.25;1.83;;;;;;;;;;4919842;29;20380;-76
2020/12/24 00:16:08;;;;;;;24.45;2.30;;;;;;;;;;4936136;29;20107;-76
2020/12/24 00:18:33;;;;;;;22.85;2.75;;;;;;;;;;4919740;29;20083;-76
2020/12/24 00:20:58;;;;;;;15.07;1.95;;;;;;;;;;4936570;29;20032;-76
2020/12/24 00:23:23;;;;;;;16.63;2.13;;;;;;;;;;4936622;29;20031;-76
2020/12/24 00:25:48;;;;;;;16.95;2.63;;;;;;;;;;4919276;29;20016;-76
2020/12/24 00:28:14;;;;;;;14.75;2.03;;;;;;;;;;4918747;29;20032;-76
2020/12/24 00:30:42;;;;;;;19.95;3.75;;;;;;;;;;4933173;29;20110;-76
2020/12/24 00:33:10;;;;;;;11.27;1.77;;;;;;;;;;4926104;29;20036;-76
2020/12/24 00:35:36;;;;;;;18.33;2.10;;;;;;;;;;4918338;29;20034;-76
2020/12/24 00:38:01;;;;;;;20.15;2.88;;;;;;;;;;4936684;29;20019;-76
2020/12/24 00:40:27;;;;;;;19.40;3.00;;;;;;;;;;4919025;29;20031;-76
2020/12/24 00:42:52;;;;;;;15.70;2.07;;;;;;;;;;4919012;29;20087;-76
2020/12/24 00:45:17;;;;;;;16.17;2.23;;;;;;;;;;4918502;29;20016;-76
2020/12/24 00:47:43;;;;;;;16.75;2.25;;;;;;;;;;4918849;29;20409;-76
2020/12/24 00:50:08;;;;;;;19.60;3.30;;;;;;;;;;4935986;29;20028;-76
2020/12/24 00:52:33;;;;;;;18.80;2.03;;;;;;;;;;4918525;29;20103;-76
2020/12/24 00:54:58;;;;;;;16.73;1.88;;;;;;;;;;4936396;29;20439;-76
2020/12/24 00:57:23;;;;;;;16.93;2.57;;;;;;;;;;4918802;29;20051;-76
2020/12/24 00:59:48;;;;;;;30.30;2.40;;;;;;;;;;4935833;29;20447;-76
2020/12/24 01:02:14;;;;;;;16.43;2.00;;;;;;;;;;4935717;29;20404;-76
2020/12/24 01:04:39;;;;;;;15.60;2.03;;;;;;;;;;4918635;29;20096;-77
2020/12/24 01:07:04;;;;;;;17.60;2.00;;;;;;;;;;4918459;29;20197;-76
2020/12/24 01:09:29;;;;;;;23.40;2.37;;;;;;;;;;4935900;29;20020;-76
2020/12/24 01:11:54;;;;;;;17.93;1.87;;;;;;;;;;4935862;29;20402;-76
2020/12/24 01:14:20;;;;;;;14.43;2.17;;;;;;;;;;4918849;29;20038;-76
2020/12/24 01:16:45;;;;;;;14.93;2.00;;;;;;;;;;4918102;29;20027;-76
2020/12/24 01:19:10;;;;;;;16.50;2.37;;;;;;;;;;4918405;29;20035;-76
2020/12/24 01:21:35;;;;;;;15.60;2.03;;;;;;;;;;4934863;29;20027;-76
2020/12/24 01:24:00;;;;;;;15.47;2.30;;;;;;;;;;4935495;29;20020;-76
2020/12/24 01:26:25;;;;;;;18.43;2.37;;;;;;;;;;4918051;29;20119;-76
2020/12/24 01:28:51;;;;;;;20.10;2.53;;;;;;;;;;4935408;29;20019;-76
2020/12/24 01:31:16;;;;;;;22.60;1.98;;;;;;;;;;4917921;29;20410;-76
2020/12/24 01:33:44;;;;;;;13.53;1.53;;;;;;;;;;4935117;29;20020;-77
2020/12/24 01:36:09;;;;;;;11.45;1.67;;;;;;;;;;4934926;29;20494;-76
2020/12/24 01:38:35;;;;;;;24.23;2.33;;;;;;;;;;4935286;29;20028;-76
2020/12/24 01:41:01;;;;;;;18.87;1.93;;;;;;;;;;4918333;29;20115;-76
2020/12/24 01:43:26;;;;;;;16.13;2.50;;;;;;;;;;4918079;29;20031;-76
2020/12/24 01:45:55;;;;;;;15.87;2.17;;;;;;;;;;4934548;29;20395;-76
2020/12/24 01:48:21;;;;;;;18.67;1.87;;;;;;;;;;4917596;29;20030;-77
2020/12/24 01:50:46;;;;;;;15.27;1.80;;;;;;;;;;4934839;29;20023;-76
2020/12/24 01:53:17;;;;;;;13.00;1.50;;;;;;;;;;4917654;29;20046;-76
2020/12/24 01:55:42;;;;;;;13.17;1.93;;;;;;;;;;4934226;29;20102;-76
2020/12/24 01:58:08;;;;;;;13.03;1.30;;;;;;;;;;4917393;29;20527;-76
2020/12/24 02:00:33;;;;;;;17.13;1.90;;;;;;;;;;4916945;29;20035;-76
2020/12/24 02:02:58;;;;;;;16.87;2.23;;;;;;;;;;4934613;29;20027;-76
2020/12/24 02:05:23;;;;;;;16.50;1.60;;;;;;;;;;4916830;29;20110;-76
2020/12/24 02:07:50;;;;;;;20.93;2.00;;;;;;;;;;4917076;29;20344;-76
2020/12/24 02:10:15;;;;;;;10.53;1.93;;;;;;;;;;4934948;29;20039;-76
2020/12/24 02:12:40;;;;;;;18.30;2.33;;;;;;;;;;4917517;29;20472;-76
2020/12/24 02:15:06;;;;;;;15.43;1.73;;;;;;;;;;4934627;29;20012;-76
2020/12/24 02:17:31;;;;;;;15.33;1.50;;;;;;;;;;4934151;29;20095;-76
2020/12/24 02:19:56;;;;;;;16.57;2.23;;;;;;;;;;4934384;29;20027;-76
2020/12/24 02:22:21;;;;;;;11.00;1.33;;;;;;;;;;4917180;29;20127;-76
2020/12/24 02:24:46;;;;;;;14.50;1.83;;;;;;;;;;4916940;29;20030;-76
2020/12/24 02:27:12;;;;;;;14.37;2.07;;;;;;;;;;4934030;29;20531;-76
2020/12/24 02:29:37;;;;;;;10.53;1.43;;;;;;;;;;4932914;29;20044;-76
2020/12/24 02:32:02;;;;;;;12.27;1.93;;;;;;;;;;4916312;29;20027;-77
2020/12/24 02:34:28;;;;;;;15.37;1.60;;;;;;;;;;4934451;29;20028;-76
2020/12/24 02:36:53;;;;;;;16.87;1.83;;;;;;;;;;4916781;29;20020;-76
2020/12/24 02:39:18;;;;;;;20.57;1.50;;;;;;;;;;4934030;29;20023;-76
2020/12/24 02:41:44;;;;;;;16.77;1.80;;;;;;;;;;4934469;29;20024;-77
2020/12/24 02:44:09;;;;;;;9.13;1.30;;;;;;;;;;4934587;29;20047;-76
2020/12/24 02:46:34;;;;;;;15.48;1.67;;;;;;;;;;4916502;29;20437;-77
2020/12/24 02:48:59;;;;;;;17.30;2.50;;;;;;;;;;4934097;29;20034;-76
2020/12/24 02:51:24;;;;;;;17.20;1.77;;;;;;;;;;4933430;29;20459;-76
2020/12/24 02:53:50;;;;;;;19.13;1.53;;;;;;;;;;4917050;29;20032;-76
2020/12/24 02:56:15;;;;;;;8.97;1.27;;;;;;;;;;4916494;29;20027;-76
2020/12/24 02:58:40;;;;;;;13.63;1.70;;;;;;;;;;4916681;29;20028;-76
2020/12/24 03:01:05;;;;;;;13.37;1.87;;;;;;;;;;4916276;29;20032;-76
2020/12/24 03:03:31;;;;;;;10.40;1.50;;;;;;;;;;4916639;29;20119;-76
2020/12/24 03:05:56;;;;;;;11.73;1.27;;;;;;;;;;4916580;29;20034;-76
2020/12/24 03:08:21;;;;;;;14.10;2.13;;;;;;;;;;4916772;29;20111;-76
2020/12/24 03:10:46;;;;;;;10.30;1.47;;;;;;;;;;4916869;29;20027;-76
2020/12/24 03:13:12;;;;;;;14.00;2.07;;;;;;;;;;4916548;29;20047;-76
2020/12/24 03:15:37;;;;;;;12.00;1.40;;;;;;;;;;4916159;29;20126;-76
2020/12/24 03:18:02;;;;;;;12.00;1.30;;;;;;;;;;4916301;29;20031;-76
2020/12/24 03:20:28;;;;;;;13.30;1.30;;;;;;;;;;4931783;29;20032;-76
2020/12/24 03:22:53;;;;;;;8.63;1.50;;;;;;;;;;4931318;29;20020;-76
2020/12/24 03:25:18;;;;;;;10.83;1.67;;;;;;;;;;4914291;29;20026;-76
2020/12/24 03:27:43;;;;;;;15.20;1.63;;;;;;;;;;4914443;29;20611;-76
2020/12/24 03:30:10;;;;;;;18.43;1.70;;;;;;;;;;4931514;29;20104;-76
2020/12/24 03:32:35;;;;;;;20.57;1.70;;;;;;;;;;4931224;29;20031;-77
2020/12/24 03:35:00;;;;;;;11.83;2.03;;;;;;;;;;4931793;29;20554;-76
2020/12/24 03:37:26;;;;;;;16.47;3.07;;;;;;;;;;4930332;29;20023;-76
2020/12/24 03:39:51;;;;;;;15.47;2.67;;;;;;;;;;4914162;29;20020;-76
2020/12/24 03:42:16;;;;;;;11.20;1.60;;;;;;;;;;4914095;29;20031;-76
2020/12/24 03:44:41;;;;;;;14.03;1.73;;;;;;;;;;4935567;29;20345;-76
2020/12/24 03:47:06;;;;;;;10.60;1.33;;;;;;;;;;4919098;29;20079;-76
2020/12/24 03:49:32;;;;;;;16.27;1.87;;;;;;;;;;4935762;29;20119;-76
2020/12/24 03:51:57;;;;;;;14.97;1.77;;;;;;;;;;4919620;29;20114;-76
2020/12/24 03:54:22;;;;;;;18.57;1.50;;;;;;;;;;4936793;29;20534;-76
2020/12/24 03:56:47;;;;;;;15.90;3.10;;;;;;;;;;4936806;29;20034;-76
2020/12/24 03:59:12;;;;;;;18.30;2.23;;;;;;;;;;4937508;29;20082;-76
2020/12/24 04:01:38;;;;;;;13.00;1.80;;;;;;;;;;4919409;29;20035;-77
2020/12/24 04:04:03;;;;;;;13.37;1.40;;;;;;;;;;4919166;29;20107;-76
2020/12/24 04:06:28;;;;;;;23.77;2.03;;;;;;;;;;4918961;29;20034;-76
2020/12/24 04:08:53;;;;;;;13.97;1.63;;;;;;;;;;4919442;29;20028;-76
2020/12/24 04:11:18;;;;;;;14.23;1.87;;;;;;;;;;4935605;29;20046;-76
2020/12/24 04:13:44;;;;;;;10.40;1.30;;;;;;;;;;4936812;29;20028;-76
2020/12/24 04:16:09;;;;;;;14.40;1.90;;;;;;;;;;4935944;29;20079;-76
2020/12/24 04:18:34;;;;;;;16.10;1.37;;;;;;;;;;4919378;29;20034;-76
2020/12/24 04:20:59;;;;;;;18.37;1.93;;;;;;;;;;4936620;29;20027;-76
2020/12/24 04:23:24;;;;;;;11.30;1.37;;;;;;;;;;4936371;29;20408;-76
2020/12/24 04:25:50;;;;;;;14.93;2.53;;;;;;;;;;4919284;29;20038;-76
2020/12/24 04:28:15;;;;;;;6.90;1.30;;;;;;;;;;4936562;29;20383;-76
2020/12/24 04:30:43;;;;;;;15.00;1.40;;;;;;;;;;4935853;29;20155;-76
2020/12/24 04:33:09;;;;;;;16.07;1.37;;;;;;;;;;4919242;29;20023;-76
2020/12/24 04:35:34;;;;;;;12.97;2.03;;;;;;;;;;4918128;29;20357;-76
2020/12/24 04:37:59;;;;;;;9.57;1.17;;;;;;;;;;4934606;29;20023;-80
2020/12/24 04:40:25;;;;;;;13.87;1.50;;;;;;;;;;4918878;29;20118;-80
2020/12/24 04:42:51;;;;;;;9.67;1.10;;;;;;;;;;4935583;29;20012;-80
2020/12/24 04:45:16;;;;;;;14.43;1.43;;;;;;;;;;4935498;29;20012;-80
2020/12/24 04:47:42;;;;;;;12.80;1.20;;;;;;;;;;4921047;29;20012;-79
2020/12/24 04:50:07;;;;;;;14.10;1.30;;;;;;;;;;4918851;29;20070;-80
2020/12/24 04:52:34;;;;;;;7.93;1.10;;;;;;;;;;4935554;29;20115;-79
2020/12/24 04:55:00;;;;;;;12.00;1.80;;;;;;;;;;4934845;29;20028;-80
2020/12/24 04:57:28;;;;;;;10.87;1.47;;;;;;;;;;4918848;29;20075;-80
2020/12/24 04:59:54;;;;;;;7.23;0.90;;;;;;;;;;4920806;29;20046;-80
2020/12/24 05:02:19;;;;;;;13.40;2.07;;;;;;;;;;4935721;29;20059;-80
2020/12/24 05:04:45;;;;;;;9.67;1.07;;;;;;;;;;4919085;29;20054;-80
2020/12/24 05:07:10;;;;;;;7.43;1.30;;;;;;;;;;4936562;29;20361;-80
2020/12/24 05:09:35;;;;;;;9.33;1.23;;;;;;;;;;4919147;29;20130;-80
2020/12/24 05:12:00;;;;;;;10.17;1.03;;;;;;;;;;4919077;29;20111;-80
2020/12/24 05:14:27;;;;;;;10.23;1.27;;;;;;;;;;4936492;29;20471;-80
2020/12/24 05:16:55;;;;;;;9.37;1.40;;;;;;;;;;4935944;29;20027;-80
2020/12/24 05:19:20;;;;;;;11.03;1.47;;;;;;;;;;4936471;29;20042;-80
2020/12/24 05:21:45;;;;;;;9.53;1.57;;;;;;;;;;4936260;29;20412;-80
2020/12/24 05:24:20;;;;;;;6.87;1.20;;;;;;;;;;4936310;29;20028;-80
2020/12/24 05:26:45;;;;;;;5.67;1.07;;;;;;;;;;4918552;29;20023;-80
2020/12/24 05:29:11;;;;;;;9.47;1.33;;;;;;;;;;4936168;29;20085;-80
2020/12/24 05:31:36;;;;;;;11.70;1.43;;;;;;;;;;4918501;29;20471;-80
2020/12/24 05:34:02;;;;;;;6.83;1.00;;;;;;;;;;4918812;29;20110;-80
2020/12/24 05:36:27;;;;;;;10.87;1.60;;;;;;;;;;4935895;29;20366;-80
2020/12/24 05:38:53;;;;;;;8.03;1.30;;;;;;;;;;4935336;29;20397;-79
2020/12/24 05:41:29;;;;;;;10.93;1.13;;;;;;;;;;4935686;29;20464;-80
2020/12/24 05:43:55;;;;;;;6.50;1.17;;;;;;;;;;4918799;29;20024;-80
2020/12/24 05:46:21;;;;;;;12.63;1.63;;;;;;;;;;4917612;29;20467;-80
2020/12/24 05:48:46;;;;;;;14.40;1.73;;;;;;;;;;4935500;29;20115;-80
2020/12/24 05:51:15;;;;;;;9.73;1.20;;;;;;;;;;4935387;29;20028;-80
2020/12/24 05:53:41;;;;;;;9.17;1.10;;;;;;;;;;4918513;29;20475;-80
2020/12/24 05:56:07;;;;;;;10.67;1.83;;;;;;;;;;4917636;29;20036;-80
2020/12/24 05:58:39;;;;;;;9.53;2.33;;;;;;;;;;4917997;29;20078;-79
2020/12/24 06:01:11;;;;;;;8.00;1.33;;;;;;;;;;4918047;29;20083;-80
2020/12/24 06:03:42;;;;;;;8.57;1.25;;;;;;;;;;4918260;29;20035;-80
2020/12/24 06:06:12;;;;;;;11.27;1.20;;;;;;;;;;4918208;29;20090;-79
2020/12/24 06:08:45;;;;;;;10.27;1.00;;;;;;;;;;4935321;29;20110;-79
2020/12/24 06:11:10;;;;;;;11.60;1.20;;;;;;;;;;4934824;29;20043;-79
2020/12/24 06:13:37;;;;;;;8.07;1.27;;;;;;;;;;4917821;29;20028;-80
2020/12/24 06:16:03;;;;;;;9.87;1.20;;;;;;;;;;4917904;29;20503;-79
2020/12/24 06:18:30;;;;;;;15.47;1.13;;;;;;;;;;4935022;29;20038;-80
2020/12/24 06:21:01;;;;;;;10.93;1.33;;;;;;;;;;4917793;29;20023;-81
2020/12/24 06:23:27;;;;;;;9.90;1.20;;;;;;;;;;4917765;29;20012;-80
2020/12/24 06:25:53;;;;;;;3.70;1.10;;;;;;;;;;4917896;29;20027;-80
2020/12/24 06:28:19;;;;;;;13.57;1.20;;;;;;;;;;4917678;29;20020;-80
2020/12/24 06:30:44;;;;;;;10.50;1.50;;;;;;;;;;4917608;29;20026;-80
2020/12/24 06:33:09;;;;;;;9.30;1.50;;;;;;;;;;4934920;29;20134;-80
2020/12/24 06:35:38;;;;;;;10.73;1.77;;;;;;;;;;4917529;29;20019;-80
2020/12/24 06:38:05;;;;;;;7.53;1.17;;;;;;;;;;4917485;29;20023;-79
2020/12/24 06:40:32;;;;;;;7.60;1.20;;;;;;;;;;4917299;29;20051;-80
2020/12/24 06:42:57;;;;;;;13.50;1.30;;;;;;;;;;4916955;29;20102;-80
2020/12/24 06:45:29;;;;;;;7.00;1.57;;;;;;;;;;4917681;29;20527;-80
2020/12/24 06:48:14;;;;;;;11.77;2.47;;;;;;;;;;4917430;29;20414;-80
2020/12/24 06:50:40;;;;;;;11.40;2.10;;;;;;;;;;4934756;29;20024;-80
2020/12/24 06:53:24;;;;;;;12.53;1.70;;;;;;;;;;4917550;29;20332;-80
2020/12/24 06:56:08;;;;;;;15.70;1.87;;;;;;;;;;4917146;29;20020;-79
2020/12/24 06:58:37;;;;;;;10.53;2.20;;;;;;;;;;4923257;29;20024;-80
2020/12/24 07:01:02;;;;;;;12.20;2.37;;;;;;;;;;4916589;29;20034;-80
2020/12/24 07:03:27;;;;;;;14.60;3.07;;;;;;;;;;4934710;29;20035;-80
2020/12/24 07:05:53;;;;;;;8.63;1.90;;;;;;;;;;4934505;29;20026;-80
2020/12/24 07:08:33;;;;;;;14.57;3.33;;;;;;;;;;4917179;29;20382;-80
2020/12/24 07:10:59;;;;;;;12.03;2.07;;;;;;;;;;4934034;29;20506;-80
2020/12/24 07:13:38;;;;;;;13.80;1.73;;;;;;;;;;4933958;29;20028;-80
2020/12/24 07:16:04;;;;;;;13.50;1.90;;;;;;;;;;4917421;29;20491;-80
2020/12/24 07:18:34;;;;;;;12.07;2.03;;;;;;;;;;4936289;29;20031;-79
2020/12/24 07:21:00;;;;;;;9.83;1.70;;;;;;;;;;4938259;29;20106;-80
2020/12/24 07:23:29;;;;;;;14.93;2.63;;;;;;;;;;4920817;29;20034;-80
2020/12/24 07:25:55;;;;;;;10.67;1.70;;;;;;;;;;4938275;29;20353;-79
2020/12/24 07:28:20;;;;;;;9.07;1.60;;;;;;;;;;4938388;29;20095;-80
2020/12/24 07:30:58;;;;;;;7.70;1.67;;;;;;;;;;4937919;29;20027;-80
2020/12/24 07:33:24;;;;;;;9.97;2.03;;;;;;;;;;4938092;29;20475;-80
2020/12/24 07:35:49;;;;;;;12.97;2.23;;;;;;;;;;4938226;29;20027;-80
2020/12/24 07:38:17;;;;;;;9.73;2.17;;;;;;;;;;4921261;29;20487;-79
2020/12/24 07:40:43;;;;;;;10.63;1.80;;;;;;;;;;4920918;29;20032;-80
2020/12/24 07:43:08;;;;;;;9.43;1.73;;;;;;;;;;4938326;29;20022;-80
2020/12/24 07:45:34;;;;;;;3.00;0.97;;;;;;;;;;4938094;29;20046;-80
2020/12/24 07:47:59;;;;;;;1.73;0.83;;;;;;;;;;4920856;29;20012;-80
2020/12/24 07:50:28;;;;;;;1.70;0.60;;;;;;;;;;4919685;29;20382;-80
2020/12/24 07:52:53;;;;;;;0.60;0.50;;;;;;;;;;4936446;29;20046;-80
2020/12/24 07:55:19;;;;;;;0.60;0.57;;;;;;;;;;4924987;29;20367;-80
2020/12/24 07:57:44;;;;;;;1.43;0.60;;;;;;;;;;4931663;29;20115;-80
2020/12/24 08:00:09;;;;;;;1.43;0.70;;;;;;;;;;4914009;29;20134;-79
2020/12/24 08:02:35;;;;;;;0.97;0.70;;;;;;;;;;4932095;29;20416;-81
2020/12/24 08:05:00;;;;;;;3.73;0.63;;;;;;;;;;4937204;29;20403;-82
2020/12/24 08:07:26;;;;;;;1.52;0.80;;;;;;;;;;4920683;29;20031;-82
2020/12/24 08:09:51;;;;;;;1.20;0.80;;;;;;;;;;4924112;29;20066;-82
2020/12/24 08:12:20;;;;;;;1.20;0.40;;;;;;;;;;4935914;29;20085;-82
2020/12/24 08:14:46;;;;;;;6.13;0.60;;;;;;;;;;4915777;29;20028;-82
2020/12/24 08:17:16;;;;;;;1.05;0.60;;;;;;;;;;4917504;29;20031;-83
2020/12/24 08:19:44;;;;;;;0.80;0.60;;;;;;;;;;4935884;29;20118;-82
2020/12/24 08:22:48;;;;;;;1.27;0.73;;;;;;;;;;4914403;29;20294;-83
2020/12/24 08:25:14;;;;;;;1.53;0.77;;;;;;;;;;4859375;29;20138;-82
2020/12/24 08:27:39;;;;;;;1.02;0.63;;;;;;;;;;4859907;29;20033;-81
2020/12/24 08:30:06;;;;;;;4.17;1.10;;;;;;;;;;4895828;29;20110;-82
2020/12/24 08:32:32;;;;;;;0.97;0.50;;;;;;;;;;4918896;29;20024;-81
2020/12/24 08:35:07;;;;;;;1.35;0.68;;;;;;;;;;4935972;29;20047;-81
2020/12/24 08:37:32;;;;;;;1.52;0.43;;;;;;;;;;4916607;29;20071;-81
2020/12/24 08:39:57;;;;;;;0.63;0.50;;;;;;;;;;4939242;29;20023;-83
2020/12/24 08:42:23;;;;;;;0.70;0.50;;;;;;;;;;4919717;29;20023;-80
2020/12/24 08:44:55;;;;;;;5.78;0.50;;;;;;;;;;4917535;29;20051;-80
2020/12/24 08:47:20;;;;;;;0.73;0.40;;;;;;;;;;4917392;29;20081;-80
2020/12/24 08:49:46;;;;;;;1.75;0.60;;;;;;;;;;4925014;29;20024;-82
2020/12/24 08:52:14;;;;;;;0.50;0.43;;;;;;;;;;4907811;29;20053;-81
2020/12/24 08:54:55;;;;;;;1.10;0.60;;;;;;;;;;4908141;29;20108;-81
2020/12/24 08:57:20;;;;;;;3.15;0.57;;;;;;;;;;4919885;29;20024;-81
2020/12/24 08:59:52;;;;;;;1.35;0.77;;;;;;;;;;4924852;29;20371;-82
2020/12/24 09:02:24;;;;;;;1.42;0.90;;;;;;;;;;4917118;29;20028;-83
2020/12/24 09:04:53;;;;;;;1.38;0.68;;;;;;;;;;4917906;29;20445;-82
2020/12/24 09:07:26;;;;;;;0.97;0.60;;;;;;;;;;4918452;29;20078;-81
2020/12/24 09:10:24;;;;;;;1.47;0.60;;;;;;;;;;4918069;29;20111;-81
2020/12/24 09:12:55;;;;;;;0.97;0.80;;;;;;;;;;4892318;29;20040;-76
2020/12/24 09:15:23;;;;;;;4.03;1.73;;;;;;;;;;4916835;29;20024;-76
2020/12/24 09:17:49;;;;;;;0.70;0.70;;;;;;;;;;4917808;29;20031;-76
2020/12/24 09:20:20;;;;;;;15.53;4.90;;;;;;;;;;4917866;29;20046;-76
2020/12/24 09:22:50;;;;;;;1.47;0.93;;;;;;;;;;4935664;29;20034;-76
2020/12/24 09:25:27;;;;;;;1.60;0.93;;;;;;;;;;4928888;29;20135;-76
2020/12/24 09:27:52;;;;;;;0.97;0.80;;;;;;;;;;4926506;29;20027;-77
2020/12/24 09:30:18;;;;;;;2.87;1.67;;;;;;;;;;4914692;29;20086;-75
2020/12/24 09:32:43;;;;;;;1.20;1.00;;;;;;;;;;4917171;29;20023;-75
2020/12/24 09:35:08;;;;;;;2.17;1.47;;;;;;;;;;4919856;29;20047;-75
2020/12/24 09:37:33;;;;;;;3.37;1.30;;;;;;;;;;4915381;29;20027;-76
2020/12/24 09:39:58;;;;;;;3.07;1.33;;;;;;;;;;4917295;29;20530;-76
2020/12/24 09:42:24;;;;;;;2.43;1.57;;;;;;;;;;4933882;29;20024;-76
2020/12/24 09:44:49;;;;;;;29.50;9.13;;;;;;;;;;4934189;29;20027;-76
2020/12/24 09:47:14;;;;;;;6.60;2.10;;;;;;;;;;4933393;29;20456;-76
2020/12/24 09:49:39;;;;;;;13.57;6.33;;;;;;;;;;4929330;29;20372;-75
2020/12/24 09:52:04;;;;;;;5.40;3.13;;;;;;;;;;4933672;29;20490;-76
2020/12/24 09:54:30;;;;;;;21.60;10.17;;;;;;;;;;4934101;29;20023;-75
2020/12/24 09:56:55;;;;;;;3.47;2.20;;;;;;;;;;4916000;29;20043;-77
2020/12/24 09:59:21;;;;;;;2.40;2.00;;;;;;;;;;4916599;29;20028;-76
2020/12/24 10:01:46;;;;;;;10.83;5.73;;;;;;;;;;4931671;29;20036;-75
2020/12/24 10:04:11;;;;;;;11.83;6.37;;;;;;;;;;4915282;29;20422;-75
2020/12/24 10:06:37;;;;;;;4.10;2.70;;;;;;;;;;4914146;29;20075;-75
2020/12/24 10:09:02;;;;;;;17.30;10.00;;;;;;;;;;4912950;29;20432;-75
2020/12/24 10:11:28;;;;;;;3.77;2.00;;;;;;;;;;4932700;29;20123;-75
2020/12/24 10:13:53;;;;;;;3.20;1.67;;;;;;;;;;4915384;29;20031;-75
2020/12/24 10:16:25;;;;;;;2.90;1.97;;;;;;;;;;4932651;29;20118;-76
2020/12/24 10:18:51;;;;;;;6.80;2.00;;;;;;;;;;4915483;29;20038;-75
2020/12/24 10:21:16;;;;;;;3.20;1.83;;;;;;;;;;4929864;29;20032;-74
2020/12/24 10:23:41;;;;;;;2.73;1.50;;;;;;;;;;4915927;29;20107;-75
2020/12/24 10:26:06;;;;;;;3.30;1.60;;;;;;;;;;4932548;29;20511;-75
2020/12/24 10:28:31;;;;;;;3.23;1.43;;;;;;;;;;4916361;29;20055;-75
2020/12/24 10:30:57;;;;;;;4.03;1.57;;;;;;;;;;4933281;29;20108;-75
2020/12/24 10:33:22;;;;;;;4.07;1.47;;;;;;;;;;4916296;29;20079;-75
2020/12/24 10:35:47;;;;;;;4.83;1.53;;;;;;;;;;4933135;29;20032;-75
2020/12/24 10:38:12;;;;;;;5.00;1.60;;;;;;;;;;4934373;29;20034;-75
2020/12/24 10:40:37;;;;;;;3.37;1.30;;;;;;;;;;4915325;29;20030;-74
2020/12/24 10:43:03;;;;;;;2.03;1.03;;;;;;;;;;4916576;29;20450;-75
2020/12/24 10:45:28;;;;;;;2.63;1.37;;;;;;;;;;4932987;29;20057;-75
2020/12/24 10:47:54;;;;;;;4.83;1.30;;;;;;;;;;4932982;29;20105;-75
2020/12/24 10:50:19;;;;;;;4.67;1.20;;;;;;;;;;4932708;29;20015;-75
2020/12/24 10:52:45;;;;;;;3.40;1.40;;;;;;;;;;4916130;29;20047;-76
2020/12/24 10:55:10;;;;;;;4.67;1.73;;;;;;;;;;4901606;29;20035;-75
2020/12/24 10:57:35;;;;;;;2.73;1.30;;;;;;;;;;4913257;29;20066;-75
2020/12/24 11:00:00;;;;;;;5.33;1.30;;;;;;;;;;4933319;29;20503;-75
2020/12/24 11:02:26;;;;;;;3.77;1.27;;;;;;;;;;4932665;29;20032;-75
2020/12/24 11:04:51;;;;;;;3.67;1.30;;;;;;;;;;4915556;29;20015;-75
2020/12/24 11:07:16;;;;;;;2.73;1.53;;;;;;;;;;4915318;29;20463;-75
2020/12/24 11:09:41;;;;;;;3.73;1.93;;;;;;;;;;4914429;29;20078;-75
2020/12/24 11:12:06;;;;;;;7.77;3.33;;;;;;;;;;4932643;29;20030;-75
2020/12/24 11:14:33;;;;;;;6.60;3.50;;;;;;;;;;4914773;29;20032;-75
2020/12/24 11:16:59;;;;;;;6.60;4.10;;;;;;;;;;4912802;29;20024;-75
2020/12/24 11:19:24;;;;;;;6.70;1.90;;;;;;;;;;4915254;29;20042;-75
2020/12/24 11:21:49;;;;;;;4.07;1.90;;;;;;;;;;4932412;29;20032;-75
2020/12/24 11:24:15;;;;;;;6.57;2.23;;;;;;;;;;4915756;29;20082;-76
2020/12/24 11:26:40;;;;;;;5.17;1.80;;;;;;;;;;4914790;29;20019;-75
2020/12/24 11:29:06;;;;;;;5.27;2.90;;;;;;;;;;4914504;29;20019;-75
2020/12/24 11:31:32;;;;;;;9.30;5.03;;;;;;;;;;4931518;29;20360;-75
2020/12/24 11:33:57;;;;;;;20.40;11.03;;;;;;;;;;4910579;29;20050;-75
2020/12/24 11:36:23;;;;;;;6.03;2.83;;;;;;;;;;4935903;29;20114;-76
2020/12/24 11:38:48;;;;;;;4.33;2.13;;;;;;;;;;4912524;29;20563;-75
2020/12/24 11:41:18;;;;;;;7.17;2.37;;;;;;;;;;4914127;29;20328;-76
2020/12/24 11:43:44;;;;;;;7.07;3.00;;;;;;;;;;4933874;29;20019;-76
2020/12/24 11:46:10;;;;;;;7.10;2.63;;;;;;;;;;4915577;29;20111;-75
2020/12/24 11:48:36;;;;;;;5.77;3.00;;;;;;;;;;4910866;29;20467;-75
2020/12/24 11:51:04;;;;;;;8.53;2.70;;;;;;;;;;4916060;29;20086;-75
2020/12/24 11:53:35;;;;;;;5.17;2.47;;;;;;;;;;4910672;29;20038;-76
2020/12/24 11:56:00;;;;;;;4.73;2.43;;;;;;;;;;4909857;29;20472;-75
2020/12/24 11:58:25;;;;;;;6.53;2.40;;;;;;;;;;4911729;29;20111;-76
2020/12/24 12:00:51;;;;;;;8.77;2.30;;;;;;;;;;4912264;29;20035;-76
2020/12/24 12:03:16;;;;;;;4.97;2.27;;;;;;;;;;4916457;29;20496;-75
2020/12/24 12:05:41;;;;;;;7.10;2.47;;;;;;;;;;4936689;29;20035;-75
2020/12/24 12:08:06;;;;;;;9.77;3.60;;;;;;;;;;4936603;29;20016;-75
2020/12/24 12:10:32;;;;;;;7.07;2.53;;;;;;;;;;4919739;29;20070;-75
2020/12/24 12:12:57;;;;;;;20.23;8.53;;;;;;;;;;4919829;29;20731;-75
2020/12/24 12:15:22;;;;;;;11.47;3.10;;;;;;;;;;4905380;29;20020;-75
2020/12/24 12:17:47;;;;;;;7.67;1.97;;;;;;;;;;4913370;29;20020;-75
2020/12/24 12:20:12;;;;;;;7.57;1.93;;;;;;;;;;4936101;29;20497;-75
2020/12/24 12:22:37;;;;;;;6.97;2.30;;;;;;;;;;4917091;29;20039;-76
2020/12/24 12:25:03;;;;;;;7.40;2.10;;;;;;;;;;4917878;29;20042;-75
2020/12/24 12:27:28;;;;;;;6.27;1.80;;;;;;;;;;4914638;29;20024;-75
2020/12/24 12:29:53;;;;;;;9.17;1.90;;;;;;;;;;4934630;29;20522;-76
2020/12/24 12:32:18;;;;;;;7.83;2.20;;;;;;;;;;4935025;29;20055;-75
2020/12/24 12:34:44;;;;;;;7.43;2.00;;;;;;;;;;4917611;29;20035;-75
2020/12/24 12:37:12;;;;;;;6.27;1.90;;;;;;;;;;4916470;29;20060;-76
2020/12/24 12:39:37;;;;;;;6.70;2.10;;;;;;;;;;4934647;29;20063;-76
2020/12/24 12:42:03;;;;;;;9.63;3.17;;;;;;;;;;4941194;29;20063;-75
2020/12/24 12:44:28;;;;;;;10.00;2.43;;;;;;;;;;4916672;29;20040;-75
2020/12/24 12:46:55;;;;;;;9.57;2.27;;;;;;;;;;4929573;29;20027;-75
2020/12/24 12:49:20;;;;;;;11.73;2.10;;;;;;;;;;4931494;29;20061;-75
2020/12/24 12:51:45;;;;;;;7.60;2.20;;;;;;;;;;4916865;29;20660;-75
2020/12/24 12:54:11;;;;;;;8.13;2.03;;;;;;;;;;4914772;29;20038;-74
2020/12/24 12:56:38;;;;;;;9.47;2.20;;;;;;;;;;4934908;29;20023;-75
2020/12/24 12:59:03;;;;;;;10.97;2.10;;;;;;;;;;4934953;29;20111;-75
2020/12/24 13:01:28;;;;;;;4.97;1.80;;;;;;;;;;4913778;29;20519;-75
2020/12/24 13:03:54;;;;;;;10.80;2.07;;;;;;;;;;4917284;29;20047;-75
2020/12/24 13:06:19;;;;;;;7.53;1.87;;;;;;;;;;4934446;29;20020;-75
2020/12/24 13:08:46;;;;;;;5.50;1.80;;;;;;;;;;4934957;29;20106;-75
2020/12/24 13:11:12;;;;;;;5.80;1.60;;;;;;;;;;4933484;29;20530;-75
2020/12/24 13:13:37;;;;;;;12.70;1.80;;;;;;;;;;4932584;29;20031;-75
2020/12/24 13:16:03;;;;;;;9.03;1.83;;;;;;;;;;4920548;29;20056;-74
2020/12/24 13:18:28;;;;;;;4.57;1.53;;;;;;;;;;4916656;29;20024;-75
2020/12/24 13:20:53;;;;;;;9.33;1.40;;;;;;;;;;4934398;29;20082;-75
2020/12/24 13:23:18;;;;;;;9.60;2.10;;;;;;;;;;4934026;29;20023;-75
2020/12/24 13:25:43;;;;;;;6.80;2.07;;;;;;;;;;4934106;29;20028;-75
2020/12/24 13:28:09;;;;;;;6.30;2.23;;;;;;;;;;4918123;29;20019;-75
2020/12/24 13:30:34;;;;;;;6.67;2.27;;;;;;;;;;4933751;29;20036;-75
2020/12/24 13:32:59;;;;;;;6.43;2.37;;;;;;;;;;4917511;29;20054;-75
2020/12/24 13:35:24;;;;;;;6.60;2.30;;;;;;;;;;4918776;29;20028;-75
2020/12/24 13:37:49;;;;;;;7.60;1.80;;;;;;;;;;4917283;29;20043;-75
2020/12/24 13:40:15;;;;;;;19.83;3.03;;;;;;;;;;4917671;29;20432;-75
2020/12/24 13:42:40;;;;;;;6.40;2.00;;;;;;;;;;4917393;29;20483;-76
2020/12/24 13:45:06;;;;;;;6.97;1.70;;;;;;;;;;4917410;29;20031;-75
2020/12/24 13:47:31;;;;;;;6.30;1.80;;;;;;;;;;4913784;29;20079;-77
2020/12/24 13:49:56;;;;;;;7.40;1.80;;;;;;;;;;4933836;29;20028;-77
2020/12/24 13:52:21;;;;;;;6.80;2.10;;;;;;;;;;4916437;29;20028;-77
2020/12/24 13:54:47;;;;;;;12.10;2.73;;;;;;;;;;4916126;29;20051;-77
2020/12/24 13:57:12;;;;;;;7.57;2.57;;;;;;;;;;4933993;29;20126;-77
2020/12/24 13:59:37;;;;;;;12.03;2.70;;;;;;;;;;4916175;29;20055;-76
2020/12/24 14:02:03;;;;;;;8.27;2.50;;;;;;;;;;4933609;29;20032;-77
2020/12/24 14:04:28;;;;;;;12.03;2.30;;;;;;;;;;4934001;29;20028;-77
2020/12/24 14:06:53;;;;;;;5.00;2.10;;;;;;;;;;4934197;29;20087;-76
2020/12/24 14:09:19;;;;;;;5.93;2.10;;;;;;;;;;4916468;29;20034;-76
2020/12/24 14:11:44;;;;;;;8.47;2.20;;;;;;;;;;4917061;29;20023;-77
2020/12/24 14:14:10;;;;;;;8.43;2.20;;;;;;;;;;4917300;29;20035;-76
2020/12/24 14:16:35;;;;;;;11.23;2.20;;;;;;;;;;4916590;29;20043;-77
2020/12/24 14:19:02;;;;;;;10.80;2.80;;;;;;;;;;4934684;29;20471;-77
2020/12/24 14:21:27;;;;;;;10.03;1.90;;;;;;;;;;4933912;29;20126;-76
2020/12/24 14:23:53;;;;;;;10.20;2.37;;;;;;;;;;4917584;29;20559;-77
2020/12/24 14:26:18;;;;;;;12.93;2.27;;;;;;;;;;4913443;29;20542;-77
2020/12/24 14:28:44;;;;;;;10.90;2.30;;;;;;;;;;4916419;29;20023;-77
2020/12/24 14:31:09;;;;;;;11.90;1.90;;;;;;;;;;4930784;29;20032;-77